Wartrace, Illinois
Current Conditions -  °F | °C
As of 12:15 AM on Sunday 26 Oct 2014 (Local Time) from KM30 Reporting Station
Moderate Fog Moderate Fog  
Wind Chill: 55°   Ceiling: Unl
Heat Index: 55°   Visibility: 0mi
Dew Point: 55°   Wind: 0mph
Humidity: 100%   Direction: NA
Pressure: 29.99"   Gusts: NA
Location:  37.3798°N, 88.7652°W
Report Text: KM30 260515Z AUTO 00000KT M1/4SM FG VV000 13/13 A2999 RMK AO2 T01250125
Loading
Personal Weather Stations






























Interactive Weather Map
Tropical Storm Tracking
New forecast layout! Learn more

10-Day Weather Forecast

Advertisements
Track Severe Weather on mobile